sensor_id;sensor_type;location;lat;lon;timestamp;temperature;humidity
5792;DHT22;2922;53.482;10.006;2023-04-03T00:02:16;1.50;99.90
5792;DHT22;2922;53.482;10.006;2023-04-03T00:04:42;1.50;99.90
5792;DHT22;2922;53.482;10.006;2023-04-03T00:07:08;1.40;99.90
5792;DHT22;2922;53.482;10.006;2023-04-03T00:09:33;1.40;99.90
5792;DHT22;2922;53.482;10.006;2023-04-03T00:11:59;1.40;99.90
5792;DHT22;2922;53.482;10.006;2023-04-03T00:14:25;1.40;99.90
5792;DHT22;2922;53.482;10.006;2023-04-03T00:16:52;1.40;99.90
5792;DHT22;2922;53.482;10.006;2023-04-03T00:19:18;1.40;99.90
5792;DHT22;2922;53.482;10.006;2023-04-03T00:21:43;1.30;99.90
5792;DHT22;2922;53.482;10.006;2023-04-03T00:24:09;1.30;99.90
5792;DHT22;2922;53.482;10.006;2023-04-03T00:26:35;1.30;99.90
5792;DHT22;2922;53.482;10.006;2023-04-03T00:29:01;1.30;99.90
5792;DHT22;2922;53.482;10.006;2023-04-03T00:31:26;1.20;99.90
5792;DHT22;2922;53.482;10.006;2023-04-03T00:33:52;1.20;99.90
5792;DHT22;2922;53.482;10.006;2023-04-03T00:36:17;1.20;99.90
5792;DHT22;2922;53.482;10.006;2023-04-03T00:38:43;1.20;99.90
5792;DHT22;2922;53.482;10.006;2023-04-03T00:41:08;1.10;99.90
5792;DHT22;2922;53.482;10.006;2023-04-03T00:43:34;1.10;99.90
5792;DHT22;2922;53.482;10.006;2023-04-03T00:46:00;1.10;99.90
5792;DHT22;2922;53.482;10.006;2023-04-03T00:48:41;1.10;99.90
5792;DHT22;2922;53.482;10.006;2023-04-03T00:51:12;1.00;99.90
5792;DHT22;2922;53.482;10.006;2023-04-03T00:53:43;1.00;99.90
5792;DHT22;2922;53.482;10.006;2023-04-03T00:56:13;1.00;99.90
5792;DHT22;2922;53.482;10.006;2023-04-03T00:58:47;1.00;99.90
5792;DHT22;2922;53.482;10.006;2023-04-03T01:01:16;1.00;99.90
5792;DHT22;2922;53.482;10.006;2023-04-03T01:03:43;0.90;99.90
5792;DHT22;2922;53.482;10.006;2023-04-03T01:06:09;0.90;99.90
5792;DHT22;2922;53.482;10.006;2023-04-03T01:08:35;0.90;99.90
5792;DHT22;2922;53.482;10.006;2023-04-03T01:11:00;0.90;99.90
5792;DHT22;2922;53.482;10.006;2023-04-03T01:13:29;0.90;99.90
5792;DHT22;2922;53.482;10.006;2023-04-03T01:15:55;0.90;99.90
5792;DHT22;2922;53.482;10.006;2023-04-03T01:18:25;0.80;99.90
5792;DHT22;2922;53.482;10.006;2023-04-03T01:21:13;0.80;99.90
5792;DHT22;2922;53.482;10.006;2023-04-03T01:23:52;0.80;99.90
5792;DHT22;2922;53.482;10.006;2023-04-03T01:26:19;0.80;99.90
5792;DHT22;2922;53.482;10.006;2023-04-03T01:28:45;0.80;99.90
5792;DHT22;2922;53.482;10.006;2023-04-03T01:31:46;0.80;99.90
5792;DHT22;2922;53.482;10.006;2023-04-03T01:34:12;0.80;99.90
5792;DHT22;2922;53.482;10.006;2023-04-03T01:36:37;0.80;99.90
5792;DHT22;2922;53.482;10.006;2023-04-03T01:39:03;0.80;99.90
5792;DHT22;2922;53.482;10.006;2023-04-03T01:41:29;0.80;99.90
5792;DHT22;2922;53.482;10.006;2023-04-03T01:43:55;0.80;99.90
5792;DHT22;2922;53.482;10.006;2023-04-03T01:46:21;0.80;99.90
5792;DHT22;2922;53.482;10.006;2023-04-03T01:48:48;0.80;99.90
5792;DHT22;2922;53.482;10.006;2023-04-03T01:51:13;0.80;99.90
5792;DHT22;2922;53.482;10.006;2023-04-03T01:53:39;0.70;99.90
5792;DHT22;2922;53.482;10.006;2023-04-03T01:56:05;0.70;99.90
5792;DHT22;2922;53.482;10.006;2023-04-03T01:58:31;0.70;99.90
5792;DHT22;2922;53.482;10.006;2023-04-03T02:00:57;0.70;99.90
5792;DHT22;2922;53.482;10.006;2023-04-03T02:03:22;0.70;99.90
5792;DHT22;2922;53.482;10.006;2023-04-03T02:05:48;0.70;99.90
5792;DHT22;2922;53.482;10.006;2023-04-03T02:08:13;0.60;99.90
5792;DHT22;2922;53.482;10.006;2023-04-03T02:10:39;0.60;99.90
5792;DHT22;2922;53.482;10.006;2023-04-03T02:13:05;0.60;99.90
5792;DHT22;2922;53.482;10.006;2023-04-03T02:15:31;0.60;99.90
5792;DHT22;2922;53.482;10.006;2023-04-03T02:17:56;0.60;99.90
5792;DHT22;2922;53.482;10.006;2023-04-03T02:20:22;0.60;99.90
5792;DHT22;2922;53.482;10.006;2023-04-03T02:22:48;0.60;99.90
5792;DHT22;2922;53.482;10.006;2023-04-03T02:25:14;0.50;99.90
5792;DHT22;2922;53.482;10.006;2023-04-03T02:27:40;0.50;99.90
5792;DHT22;2922;53.482;10.006;2023-04-03T02:30:06;0.50;99.90
5792;DHT22;2922;53.482;10.006;2023-04-03T02:32:32;0.50;99.90
5792;DHT22;2922;53.482;10.006;2023-04-03T02:34:58;0.50;99.90
5792;DHT22;2922;53.482;10.006;2023-04-03T02:37:23;0.40;99.90
5792;DHT22;2922;53.482;10.006;2023-04-03T02:39:49;0.40;99.90
5792;DHT22;2922;53.482;10.006;2023-04-03T02:42:15;0.40;99.90
5792;DHT22;2922;53.482;10.006;2023-04-03T02:44:41;0.40;99.90
5792;DHT22;2922;53.482;10.006;2023-04-03T02:47:06;0.40;99.90
5792;DHT22;2922;53.482;10.006;2023-04-03T02:49:32;0.40;99.90
5792;DHT22;2922;53.482;10.006;2023-04-03T02:51:58;0.30;99.90
5792;DHT22;2922;53.482;10.006;2023-04-03T02:54:23;0.30;99.90
5792;DHT22;2922;53.482;10.006;2023-04-03T02:56:53;0.30;99.90
5792;DHT22;2922;53.482;10.006;2023-04-03T02:59:18;0.30;99.90
5792;DHT22;2922;53.482;10.006;2023-04-03T03:01:44;0.30;99.90
5792;DHT22;2922;53.482;10.006;2023-04-03T03:04:09;0.20;99.90
5792;DHT22;2922;53.482;10.006;2023-04-03T03:06:35;0.20;99.90
5792;DHT22;2922;53.482;10.006;2023-04-03T03:09:00;0.20;99.90
5792;DHT22;2922;53.482;10.006;2023-04-03T03:11:26;0.20;99.90
5792;DHT22;2922;53.482;10.006;2023-04-03T03:13:52;0.20;99.90
5792;DHT22;2922;53.482;10.006;2023-04-03T03:16:17;0.10;99.90
5792;DHT22;2922;53.482;10.006;2023-04-03T03:18:43;0.10;99.90
5792;DHT22;2922;53.482;10.006;2023-04-03T03:21:09;0.10;99.90
5792;DHT22;2922;53.482;10.006;2023-04-03T03:23:35;0.10;99.90
5792;DHT22;2922;53.482;10.006;2023-04-03T03:26:04;0.00;99.90
5792;DHT22;2922;53.482;10.006;2023-04-03T03:28:29;0.00;99.90
5792;DHT22;2922;53.482;10.006;2023-04-03T03:30:56;0.00;99.90
5792;DHT22;2922;53.482;10.006;2023-04-03T03:33:22;0.00;99.90
5792;DHT22;2922;53.482;10.006;2023-04-03T03:35:47;0.00;99.90
5792;DHT22;2922;53.482;10.006;2023-04-03T03:38:13;0.00;99.90
5792;DHT22;2922;53.482;10.006;2023-04-03T03:40:38;-0.10;99.90
5792;DHT22;2922;53.482;10.006;2023-04-03T03:43:04;-0.10;99.90
5792;DHT22;2922;53.482;10.006;2023-04-03T03:45:30;-0.10;99.90
5792;DHT22;2922;53.482;10.006;2023-04-03T03:47:56;-0.10;99.90
5792;DHT22;2922;53.482;10.006;2023-04-03T03:50:22;-0.20;99.90
5792;DHT22;2922;53.482;10.006;2023-04-03T03:52:47;-0.20;99.90
5792;DHT22;2922;53.482;10.006;2023-04-03T03:55:13;-0.20;99.90
5792;DHT22;2922;53.482;10.006;2023-04-03T03:57:38;-0.20;99.90
5792;DHT22;2922;53.482;10.006;2023-04-03T04:00:05;-0.20;99.90
5792;DHT22;2922;53.482;10.006;2023-04-03T04:02:32;-0.30;99.90
5792;DHT22;2922;53.482;10.006;2023-04-03T04:04:58;-0.30;99.90
5792;DHT22;2922;53.482;10.006;2023-04-03T04:07:23;-0.30;99.90
5792;DHT22;2922;53.482;10.006;2023-04-03T04:09:49;-0.30;99.90
5792;DHT22;2922;53.482;10.006;2023-04-03T04:12:14;-0.30;99.90
5792;DHT22;2922;53.482;10.006;2023-04-03T04:14:41;-0.40;99.90
5792;DHT22;2922;53.482;10.006;2023-04-03T04:17:06;-0.40;99.90
5792;DHT22;2922;53.482;10.006;2023-04-03T04:19:32;-0.40;99.90
5792;DHT22;2922;53.482;10.006;2023-04-03T04:21:58;-0.40;99.90
5792;DHT22;2922;53.482;10.006;2023-04-03T04:24:24;-0.40;99.90
5792;DHT22;2922;53.482;10.006;2023-04-03T04:26:50;-0.40;99.90
5792;DHT22;2922;53.482;10.006;2023-04-03T04:29:15;-0.50;99.90
5792;DHT22;2922;53.482;10.006;2023-04-03T04:31:41;-0.50;99.90
5792;DHT22;2922;53.482;10.006;2023-04-03T04:34:06;-0.50;99.90
5792;DHT22;2922;53.482;10.006;2023-04-03T04:36:32;-0.50;99.90
5792;DHT22;2922;53.482;10.006;2023-04-03T04:38:57;-0.50;99.90
5792;DHT22;2922;53.482;10.006;2023-04-03T04:41:24;-0.50;99.90
5792;DHT22;2922;53.482;10.006;2023-04-03T04:43:50;-0.50;99.90
5792;DHT22;2922;53.482;10.006;2023-04-03T04:46:16;-0.50;99.90
5792;DHT22;2922;53.482;10.006;2023-04-03T04:48:41;-0.50;99.90
5792;DHT22;2922;53.482;10.006;2023-04-03T04:51:07;-0.60;99.90
5792;DHT22;2922;53.482;10.006;2023-04-03T04:53:33;-0.60;99.90
5792;DHT22;2922;53.482;10.006;2023-04-03T04:55:59;-0.60;99.90
5792;DHT22;2922;53.482;10.006;2023-04-03T04:58:25;-0.60;99.90
5792;DHT22;2922;53.482;10.006;2023-04-03T05:01:02;-0.60;99.90
5792;DHT22;2922;53.482;10.006;2023-04-03T05:03:28;-0.60;99.90
5792;DHT22;2922;53.482;10.006;2023-04-03T05:05:53;-0.60;99.90
5792;DHT22;2922;53.482;10.006;2023-04-03T05:08:19;-0.60;99.90
5792;DHT22;2922;53.482;10.006;2023-04-03T05:10:45;-0.50;99.90
5792;DHT22;2922;53.482;10.006;2023-04-03T05:13:11;-0.60;99.90
5792;DHT22;2922;53.482;10.006;2023-04-03T05:15:37;-0.60;99.90
5792;DHT22;2922;53.482;10.006;2023-04-03T05:18:02;-0.50;99.90
5792;DHT22;2922;53.482;10.006;2023-04-03T05:20:28;-0.60;99.90
5792;DHT22;2922;53.482;10.006;2023-04-03T05:22:54;-0.50;99.90
5792;DHT22;2922;53.482;10.006;2023-04-03T05:25:19;-0.50;99.90
5792;DHT22;2922;53.482;10.006;2023-04-03T05:27:45;-0.50;99.90
5792;DHT22;2922;53.482;10.006;2023-04-03T05:30:11;-0.50;99.90
5792;DHT22;2922;53.482;10.006;2023-04-03T05:32:37;-0.50;99.90
5792;DHT22;2922;53.482;10.006;2023-04-03T05:35:02;-0.40;99.90
5792;DHT22;2922;53.482;10.006;2023-04-03T05:37:28;-0.40;99.90
5792;DHT22;2922;53.482;10.006;2023-04-03T05:39:54;-0.40;99.90
5792;DHT22;2922;53.482;10.006;2023-04-03T05:42:19;-0.40;99.90
5792;DHT22;2922;53.482;10.006;2023-04-03T05:44:45;-0.30;99.90
5792;DHT22;2922;53.482;10.006;2023-04-03T05:47:12;-0.30;99.90
5792;DHT22;2922;53.482;10.006;2023-04-03T05:49:38;-0.30;99.90
5792;DHT22;2922;53.482;10.006;2023-04-03T05:52:17;-0.20;99.90
5792;DHT22;2922;53.482;10.006;2023-04-03T05:54:45;-0.20;99.90
5792;DHT22;2922;53.482;10.006;2023-04-03T05:57:14;-0.10;99.90
5792;DHT22;2922;53.482;10.006;2023-04-03T05:59:41;0.00;99.90
5792;DHT22;2922;53.482;10.006;2023-04-03T06:02:08;0.00;99.90
5792;DHT22;2922;53.482;10.006;2023-04-03T06:04:34;0.10;99.90
5792;DHT22;2922;53.482;10.006;2023-04-03T06:07:00;0.20;99.90
5792;DHT22;2922;53.482;10.006;2023-04-03T06:09:28;0.30;99.90
5792;DHT22;2922;53.482;10.006;2023-04-03T06:11:57;0.40;99.90
5792;DHT22;2922;53.482;10.006;2023-04-03T06:14:24;0.40;99.90
5792;DHT22;2922;53.482;10.006;2023-04-03T06:16:51;0.50;99.90
5792;DHT22;2922;53.482;10.006;2023-04-03T06:19:16;0.60;99.90
5792;DHT22;2922;53.482;10.006;2023-04-03T06:21:42;0.70;99.90
5792;DHT22;2922;53.482;10.006;2023-04-03T06:24:09;0.80;99.90
5792;DHT22;2922;53.482;10.006;2023-04-03T06:26:35;0.90;99.90
5792;DHT22;2922;53.482;10.006;2023-04-03T06:29:01;1.00;99.90
5792;DHT22;2922;53.482;10.006;2023-04-03T06:31:27;1.20;99.90
5792;DHT22;2922;53.482;10.006;2023-04-03T06:33:53;1.30;99.90
5792;DHT22;2922;53.482;10.006;2023-04-03T06:36:19;1.40;99.90
5792;DHT22;2922;53.482;10.006;2023-04-03T06:38:46;1.50;99.90
5792;DHT22;2922;53.482;10.006;2023-04-03T06:41:12;1.60;99.90
5792;DHT22;2922;53.482;10.006;2023-04-03T06:43:37;1.70;99.90
5792;DHT22;2922;53.482;10.006;2023-04-03T06:46:03;1.90;99.90
5792;DHT22;2922;53.482;10.006;2023-04-03T06:48:29;2.00;99.90
5792;DHT22;2922;53.482;10.006;2023-04-03T06:50:55;2.20;99.90
5792;DHT22;2922;53.482;10.006;2023-04-03T06:53:20;2.30;99.90
5792;DHT22;2922;53.482;10.006;2023-04-03T06:55:46;2.40;99.90
5792;DHT22;2922;53.482;10.006;2023-04-03T06:58:13;2.60;99.90
5792;DHT22;2922;53.482;10.006;2023-04-03T07:00:39;2.70;99.90
5792;DHT22;2922;53.482;10.006;2023-04-03T07:03:04;2.90;99.90
5792;DHT22;2922;53.482;10.006;2023-04-03T07:05:30;3.10;99.90
5792;DHT22;2922;53.482;10.006;2023-04-03T07:07:56;3.30;99.90
5792;DHT22;2922;53.482;10.006;2023-04-03T07:10:22;3.40;99.90
5792;DHT22;2922;53.482;10.006;2023-04-03T07:12:47;3.60;99.90
5792;DHT22;2922;53.482;10.006;2023-04-03T07:15:13;3.80;99.90
5792;DHT22;2922;53.482;10.006;2023-04-03T07:17:39;3.90;99.90
5792;DHT22;2922;53.482;10.006;2023-04-03T07:20:06;4.10;99.90
5792;DHT22;2922;53.482;10.006;2023-04-03T07:22:32;4.20;99.90
5792;DHT22;2922;53.482;10.006;2023-04-03T07:24:58;4.40;99.90
5792;DHT22;2922;53.482;10.006;2023-04-03T07:27:24;4.60;99.90
5792;DHT22;2922;53.482;10.006;2023-04-03T07:29:50;4.80;99.90
5792;DHT22;2922;53.482;10.006;2023-04-03T07:32:16;4.90;99.90
5792;DHT22;2922;53.482;10.006;2023-04-03T07:34:43;5.00;99.90
5792;DHT22;2922;53.482;10.006;2023-04-03T07:37:09;5.00;99.90
5792;DHT22;2922;53.482;10.006;2023-04-03T07:39:34;5.20;99.90
5792;DHT22;2922;53.482;10.006;2023-04-03T07:42:00;5.30;99.90
5792;DHT22;2922;53.482;10.006;2023-04-03T07:44:27;5.40;99.90
5792;DHT22;2922;53.482;10.006;2023-04-03T07:47:00;5.50;99.90
5792;DHT22;2922;53.482;10.006;2023-04-03T07:49:26;5.70;99.90
5792;DHT22;2922;53.482;10.006;2023-04-03T07:51:51;5.80;99.90
5792;DHT22;2922;53.482;10.006;2023-04-03T07:54:18;5.90;99.90
5792;DHT22;2922;53.482;10.006;2023-04-03T07:56:44;6.00;99.90
5792;DHT22;2922;53.482;10.006;2023-04-03T07:59:10;6.20;99.90
5792;DHT22;2922;53.482;10.006;2023-04-03T08:01:36;6.30;99.90
5792;DHT22;2922;53.482;10.006;2023-04-03T08:04:02;6.50;99.90
5792;DHT22;2922;53.482;10.006;2023-04-03T08:06:28;6.50;99.90
5792;DHT22;2922;53.482;10.006;2023-04-03T08:08:55;6.60;99.90
5792;DHT22;2922;53.482;10.006;2023-04-03T08:11:21;6.70;99.90
5792;DHT22;2922;53.482;10.006;2023-04-03T08:13:47;6.90;99.90
5792;DHT22;2922;53.482;10.006;2023-04-03T08:16:17;7.00;99.90
5792;DHT22;2922;53.482;10.006;2023-04-03T08:18:42;7.10;99.90
5792;DHT22;2922;53.482;10.006;2023-04-03T08:21:10;7.10;99.90
5792;DHT22;2922;53.482;10.006;2023-04-03T08:23:36;7.10;99.90
5792;DHT22;2922;53.482;10.006;2023-04-03T08:26:16;7.00;99.90
5792;DHT22;2922;53.482;10.006;2023-04-03T08:28:41;7.20;99.90
5792;DHT22;2922;53.482;10.006;2023-04-03T08:31:10;7.30;99.90
5792;DHT22;2922;53.482;10.006;2023-04-03T08:33:37;7.40;99.90
5792;DHT22;2922;53.482;10.006;2023-04-03T08:36:05;7.60;99.90
5792;DHT22;2922;53.482;10.006;2023-04-03T08:38:31;7.80;99.90
5792;DHT22;2922;53.482;10.006;2023-04-03T08:41:20;7.80;99.90
5792;DHT22;2922;53.482;10.006;2023-04-03T08:46:56;8.10;99.90
5792;DHT22;2922;53.482;10.006;2023-04-03T08:49:35;8.30;99.90
5792;DHT22;2922;53.482;10.006;2023-04-03T08:52:08;8.50;99.90
5792;DHT22;2922;53.482;10.006;2023-04-03T08:54:40;8.60;99.90
5792;DHT22;2922;53.482;10.006;2023-04-03T08:57:11;8.80;98.90
5792;DHT22;2922;53.482;10.006;2023-04-03T08:59:38;8.90;98.00
5792;DHT22;2922;53.482;10.006;2023-04-03T09:02:23;9.10;96.00
5792;DHT22;2922;53.482;10.006;2023-04-03T09:04:49;9.10;93.30
5792;DHT22;2922;53.482;10.006;2023-04-03T09:07:31;9.00;92.70
5792;DHT22;2922;53.482;10.006;2023-04-03T09:09:59;9.00;93.60
5792;DHT22;2922;53.482;10.006;2023-04-03T09:12:42;9.20;90.00
5792;DHT22;2922;53.482;10.006;2023-04-03T09:15:22;9.40;90.00
5792;DHT22;2922;53.482;10.006;2023-04-03T09:18:18;9.60;86.00
5792;DHT22;2922;53.482;10.006;2023-04-03T09:23:24;9.90;81.10
5792;DHT22;2922;53.482;10.006;2023-04-03T09:25:56;10.10;78.80
5792;DHT22;2922;53.482;10.006;2023-04-03T09:28:23;10.30;84.60
5792;DHT22;2922;53.482;10.006;2023-04-03T09:30:48;10.40;76.90
5792;DHT22;2922;53.482;10.006;2023-04-03T09:33:14;10.50;77.00
5792;DHT22;2922;53.482;10.006;2023-04-03T09:35:40;10.60;77.20
5792;DHT22;2922;53.482;10.006;2023-04-03T09:40:40;10.90;70.30
5792;DHT22;2922;53.482;10.006;2023-04-03T09:43:21;10.80;69.70
5792;DHT22;2922;53.482;10.006;2023-04-03T09:45:49;10.90;73.80
5792;DHT22;2922;53.482;10.006;2023-04-03T09:48:16;11.00;67.90
5792;DHT22;2922;53.482;10.006;2023-04-03T09:50:56;11.30;72.20
5792;DHT22;2922;53.482;10.006;2023-04-03T09:53:43;11.30;62.20
5792;DHT22;2922;53.482;10.006;2023-04-03T09:58:46;11.20;63.20
5792;DHT22;2922;53.482;10.006;2023-04-03T10:01:37;11.50;64.20
5792;DHT22;2922;53.482;10.006;2023-04-03T10:06:33;11.10;56.50
5792;DHT22;2922;53.482;10.006;2023-04-03T10:09:30;11.40;65.60
5792;DHT22;2922;53.482;10.006;2023-04-03T10:12:11;11.30;54.40
5792;DHT22;2922;53.482;10.006;2023-04-03T10:14:58;11.30;56.90
5792;DHT22;2922;53.482;10.006;2023-04-03T10:20:26;11.50;50.70
5792;DHT22;2922;53.482;10.006;2023-04-03T10:23:16;11.60;50.60
5792;DHT22;2922;53.482;10.006;2023-04-03T10:26:07;11.90;50.40
5792;DHT22;2922;53.482;10.006;2023-04-03T10:28:56;11.90;51.40
5792;DHT22;2922;53.482;10.006;2023-04-03T10:31:44;11.90;47.80
5792;DHT22;2922;53.482;10.006;2023-04-03T10:47:22;11.50;47.30
5792;DHT22;2922;53.482;10.006;2023-04-03T10:55:43;12.10;45.50
5792;DHT22;2922;53.482;10.006;2023-04-03T10:58:24;12.30;48.00
5792;DHT22;2922;53.482;10.006;2023-04-03T11:00:53;12.70;50.40
5792;DHT22;2922;53.482;10.006;2023-04-03T11:03:37;12.50;48.20
5792;DHT22;2922;53.482;10.006;2023-04-03T11:06:08;12.60;48.60
5792;DHT22;2922;53.482;10.006;2023-04-03T11:08:36;12.90;51.70
5792;DHT22;2922;53.482;10.006;2023-04-03T11:11:09;13.20;52.70
5792;DHT22;2922;53.482;10.006;2023-04-03T11:13:44;13.20;47.50
5792;DHT22;2922;53.482;10.006;2023-04-03T11:16:17;12.80;43.90
5792;DHT22;2922;53.482;10.006;2023-04-03T11:19:12;12.50;47.30
5792;DHT22;2922;53.482;10.006;2023-04-03T11:21:44;12.20;47.40
5792;DHT22;2922;53.482;10.006;2023-04-03T11:24:22;12.50;47.30
5792;DHT22;2922;53.482;10.006;2023-04-03T11:26:50;12.60;46.10
5792;DHT22;2922;53.482;10.006;2023-04-03T11:29:28;12.90;47.60
5792;DHT22;2922;53.482;10.006;2023-04-03T11:35:00;13.40;53.20
5792;DHT22;2922;53.482;10.006;2023-04-03T11:37:45;13.90;51.00
5792;DHT22;2922;53.482;10.006;2023-04-03T11:42:46;14.30;48.70
5792;DHT22;2922;53.482;10.006;2023-04-03T11:45:35;14.50;47.40
5792;DHT22;2922;53.482;10.006;2023-04-03T11:50:48;14.80;49.30
5792;DHT22;2922;53.482;10.006;2023-04-03T12:04:16;14.90;45.50
5792;DHT22;2922;53.482;10.006;2023-04-03T12:06:47;14.90;43.70
5792;DHT22;2922;53.482;10.006;2023-04-03T12:12:31;14.40;43.50
5792;DHT22;2922;53.482;10.006;2023-04-03T12:17:48;14.20;46.30
5792;DHT22;2922;53.482;10.006;2023-04-03T12:20:53;14.50;49.80
5792;DHT22;2922;53.482;10.006;2023-04-03T12:23:35;14.70;45.30
5792;DHT22;2922;53.482;10.006;2023-04-03T12:26:05;14.80;47.50
5792;DHT22;2922;53.482;10.006;2023-04-03T12:28:39;15.20;46.70
5792;DHT22;2922;53.482;10.006;2023-04-03T12:31:05;15.40;47.00
5792;DHT22;2922;53.482;10.006;2023-04-03T12:33:56;15.30;45.40
5792;DHT22;2922;53.482;10.006;2023-04-03T12:37:00;15.40;44.50
5792;DHT22;2922;53.482;10.006;2023-04-03T12:39:54;15.50;44.60
5792;DHT22;2922;53.482;10.006;2023-04-03T12:45:27;15.50;38.80
5792;DHT22;2922;53.482;10.006;2023-04-03T12:47:54;14.20;39.70
5792;DHT22;2922;53.482;10.006;2023-04-03T12:50:24;13.50;41.50
5792;DHT22;2922;53.482;10.006;2023-04-03T12:52:57;13.50;44.20
5792;DHT22;2922;53.482;10.006;2023-04-03T12:55:25;13.90;44.70
5792;DHT22;2922;53.482;10.006;2023-04-03T12:57:51;14.00;43.40
5792;DHT22;2922;53.482;10.006;2023-04-03T13:00:35;13.80;41.30
5792;DHT22;2922;53.482;10.006;2023-04-03T13:03:05;14.30;45.40
5792;DHT22;2922;53.482;10.006;2023-04-03T13:05:32;14.70;44.90
5792;DHT22;2922;53.482;10.006;2023-04-03T13:08:03;14.00;41.70
5792;DHT22;2922;53.482;10.006;2023-04-03T13:10:30;13.60;44.10
5792;DHT22;2922;53.482;10.006;2023-04-03T13:12:58;13.30;42.80
5792;DHT22;2922;53.482;10.006;2023-04-03T13:15:41;13.30;42.70
5792;DHT22;2922;53.482;10.006;2023-04-03T13:20:53;13.20;46.50
5792;DHT22;2922;53.482;10.006;2023-04-03T13:23:21;13.60;45.60
5792;DHT22;2922;53.482;10.006;2023-04-03T13:25:48;13.90;48.90
5792;DHT22;2922;53.482;10.006;2023-04-03T13:28:19;14.20;46.40
5792;DHT22;2922;53.482;10.006;2023-04-03T13:31:17;14.30;45.50
5792;DHT22;2922;53.482;10.006;2023-04-03T13:34:02;14.00;42.30
5792;DHT22;2922;53.482;10.006;2023-04-03T13:36:38;13.90;42.60
5792;DHT22;2922;53.482;10.006;2023-04-03T13:41:41;14.30;44.20
5792;DHT22;2922;53.482;10.006;2023-04-03T13:46:52;14.40;42.90
5792;DHT22;2922;53.482;10.006;2023-04-03T13:49:20;14.20;45.60
5792;DHT22;2922;53.482;10.006;2023-04-03T13:51:47;14.10;43.00
5792;DHT22;2922;53.482;10.006;2023-04-03T13:54:20;13.80;40.20
5792;DHT22;2922;53.482;10.006;2023-04-03T13:56:53;13.60;40.40
5792;DHT22;2922;53.482;10.006;2023-04-03T14:01:49;13.50;42.40
5792;DHT22;2922;53.482;10.006;2023-04-03T14:04:22;13.20;44.80
5792;DHT22;2922;53.482;10.006;2023-04-03T14:06:49;13.40;43.50
5792;DHT22;2922;53.482;10.006;2023-04-03T14:09:16;13.30;43.20
5792;DHT22;2922;53.482;10.006;2023-04-03T14:11:43;13.10;40.30
5792;DHT22;2922;53.482;10.006;2023-04-03T14:14:19;13.20;44.00
5792;DHT22;2922;53.482;10.006;2023-04-03T14:16:49;13.30;44.50
5792;DHT22;2922;53.482;10.006;2023-04-03T14:19:29;13.50;44.70
5792;DHT22;2922;53.482;10.006;2023-04-03T14:21:55;13.40;43.10
5792;DHT22;2922;53.482;10.006;2023-04-03T14:24:22;13.20;38.80
5792;DHT22;2922;53.482;10.006;2023-04-03T14:26:49;13.10;40.30
5792;DHT22;2922;53.482;10.006;2023-04-03T14:29:16;12.80;38.60
5792;DHT22;2922;53.482;10.006;2023-04-03T14:31:43;12.60;41.40
5792;DHT22;2922;53.482;10.006;2023-04-03T14:34:13;12.40;41.00
5792;DHT22;2922;53.482;10.006;2023-04-03T14:36:41;12.40;41.30
5792;DHT22;2922;53.482;10.006;2023-04-03T14:39:10;12.50;39.10
5792;DHT22;2922;53.482;10.006;2023-04-03T14:41:36;12.70;40.50
5792;DHT22;2922;53.482;10.006;2023-04-03T14:44:02;12.70;39.20
5792;DHT22;2922;53.482;10.006;2023-04-03T14:46:34;12.60;39.80
5792;DHT22;2922;53.482;10.006;2023-04-03T14:49:00;12.70;40.50
5792;DHT22;2922;53.482;10.006;2023-04-03T14:51:26;12.70;40.10
5792;DHT22;2922;53.482;10.006;2023-04-03T14:53:52;12.60;38.60
5792;DHT22;2922;53.482;10.006;2023-04-03T14:56:26;12.30;38.60
5792;DHT22;2922;53.482;10.006;2023-04-03T14:58:57;12.20;37.80
5792;DHT22;2922;53.482;10.006;2023-04-03T15:01:23;12.10;39.60
5792;DHT22;2922;53.482;10.006;2023-04-03T15:03:49;12.00;39.70
5792;DHT22;2922;53.482;10.006;2023-04-03T15:06:15;11.90;40.00
5792;DHT22;2922;53.482;10.006;2023-04-03T15:08:42;11.80;41.00
5792;DHT22;2922;53.482;10.006;2023-04-03T15:11:09;11.70;39.30
5792;DHT22;2922;53.482;10.006;2023-04-03T15:13:36;11.80;40.50
5792;DHT22;2922;53.482;10.006;2023-04-03T15:16:02;11.80;39.60
5792;DHT22;2922;53.482;10.006;2023-04-03T15:18:32;11.70;40.60
5792;DHT22;2922;53.482;10.006;2023-04-03T15:20:59;11.70;40.90
5792;DHT22;2922;53.482;10.006;2023-04-03T15:23:25;11.50;38.70
5792;DHT22;2922;53.482;10.006;2023-04-03T15:25:53;11.50;40.70
5792;DHT22;2922;53.482;10.006;2023-04-03T15:30:53;11.60;42.30
5792;DHT22;2922;53.482;10.006;2023-04-03T15:33:20;11.40;41.40
5792;DHT22;2922;53.482;10.006;2023-04-03T15:35:46;11.30;40.90
5792;DHT22;2922;53.482;10.006;2023-04-03T15:38:12;11.20;41.80
5792;DHT22;2922;53.482;10.006;2023-04-03T15:40:38;11.00;41.10
5792;DHT22;2922;53.482;10.006;2023-04-03T15:43:05;10.90;42.70
5792;DHT22;2922;53.482;10.006;2023-04-03T15:45:31;10.80;42.10
5792;DHT22;2922;53.482;10.006;2023-04-03T15:47:59;10.80;42.90
5792;DHT22;2922;53.482;10.006;2023-04-03T15:50:25;10.50;41.50
5792;DHT22;2922;53.482;10.006;2023-04-03T15:52:52;10.60;43.80
5792;DHT22;2922;53.482;10.006;2023-04-03T15:55:24;10.60;45.20
5792;DHT22;2922;53.482;10.006;2023-04-03T15:57:50;10.50;44.10
5792;DHT22;2922;53.482;10.006;2023-04-03T16:00:16;10.40;45.10
5792;DHT22;2922;53.482;10.006;2023-04-03T16:02:44;10.30;44.00
5792;DHT22;2922;53.482;10.006;2023-04-03T16:05:10;10.30;44.20
5792;DHT22;2922;53.482;10.006;2023-04-03T16:07:38;10.30;45.20
5792;DHT22;2922;53.482;10.006;2023-04-03T16:10:05;10.20;47.90
5792;DHT22;2922;53.482;10.006;2023-04-03T16:12:30;10.20;45.40
5792;DHT22;2922;53.482;10.006;2023-04-03T16:14:56;10.30;45.70
5792;DHT22;2922;53.482;10.006;2023-04-03T16:17:22;10.30;44.80
5792;DHT22;2922;53.482;10.006;2023-04-03T16:19:47;10.30;45.50
5792;DHT22;2922;53.482;10.006;2023-04-03T16:22:13;10.30;45.20
5792;DHT22;2922;53.482;10.006;2023-04-03T16:24:38;10.40;45.50
5792;DHT22;2922;53.482;10.006;2023-04-03T16:27:05;10.50;45.00
5792;DHT22;2922;53.482;10.006;2023-04-03T16:29:30;10.40;45.50
5792;DHT22;2922;53.482;10.006;2023-04-03T16:31:57;10.30;46.20
5792;DHT22;2922;53.482;10.006;2023-04-03T16:34:23;10.30;46.50
5792;DHT22;2922;53.482;10.006;2023-04-03T16:36:51;10.30;47.10
5792;DHT22;2922;53.482;10.006;2023-04-03T16:39:17;10.30;46.80
5792;DHT22;2922;53.482;10.006;2023-04-03T16:41:43;10.20;47.00
5792;DHT22;2922;53.482;10.006;2023-04-03T16:44:09;10.20;46.80
5792;DHT22;2922;53.482;10.006;2023-04-03T16:46:35;10.00;46.70
5792;DHT22;2922;53.482;10.006;2023-04-03T16:49:00;10.00;48.10
5792;DHT22;2922;53.482;10.006;2023-04-03T16:51:26;10.00;47.30
5792;DHT22;2922;53.482;10.006;2023-04-03T16:53:51;9.90;48.20
5792;DHT22;2922;53.482;10.006;2023-04-03T16:56:17;9.80;48.90
5792;DHT22;2922;53.482;10.006;2023-04-03T16:58:42;9.70;47.70
5792;DHT22;2922;53.482;10.006;2023-04-03T17:01:16;9.70;48.20
5792;DHT22;2922;53.482;10.006;2023-04-03T17:03:42;9.60;48.30
5792;DHT22;2922;53.482;10.006;2023-04-03T17:06:10;9.40;48.80
5792;DHT22;2922;53.482;10.006;2023-04-03T17:08:41;9.30;49.90
5792;DHT22;2922;53.482;10.006;2023-04-03T17:11:07;9.10;50.70
5792;DHT22;2922;53.482;10.006;2023-04-03T17:13:33;9.00;51.60
5792;DHT22;2922;53.482;10.006;2023-04-03T17:16:00;8.80;51.90
5792;DHT22;2922;53.482;10.006;2023-04-03T17:18:28;8.80;52.10
5792;DHT22;2922;53.482;10.006;2023-04-03T17:20:55;8.70;53.30